Time;durP1;ratioP1;P1;durP2;ratioP2;P2;SDS_P1;SDS_P2;PMS_P1;PMS_P2;Temp;Humidity;BMP_temperature;BMP_pressure;BME280_temperature;BME280_humidity;BME280_pressure;Samples;Min_cycle;Max_cycle;Signal;HPM_P1;HPM_P2
2022/07/11 00:02:03;;;;;;;5.57;1.70;;;12.30;84.80;;;;;;5054256;28;20223;-86
2022/07/11 00:04:30;;;;;;;5.80;1.87;;;12.30;84.60;;;;;;5055856;28;20230;-85
2022/07/11 00:06:56;;;;;;;4.87;1.70;;;12.30;85.00;;;;;;5054359;28;20546;-85
2022/07/11 00:09:21;;;;;;;9.13;2.00;;;12.30;84.80;;;;;;5056154;28;20212;-85
2022/07/11 00:11:48;;;;;;;4.87;1.90;;;12.20;84.90;;;;;;5055360;28;20269;-85
2022/07/11 00:14:14;;;;;;;3.87;1.60;;;12.30;85.30;;;;;;5054355;28;20184;-86
2022/07/11 00:16:39;;;;;;;6.43;1.83;;;12.30;85.00;;;;;;5055707;28;20178;-85
2022/07/11 00:19:05;;;;;;;2.60;1.53;;;12.30;84.70;;;;;;5054212;28;20294;-86
2022/07/11 00:21:31;;;;;;;3.07;1.63;;;12.20;84.60;;;;;;5054308;28;20192;-85
2022/07/11 00:23:57;;;;;;;1.93;1.60;;;12.20;84.80;;;;;;5054289;28;20665;-85
2022/07/11 00:26:22;;;;;;;4.67;1.93;;;12.30;85.00;;;;;;5055495;28;20175;-85
2022/07/11 00:28:48;;;;;;;4.80;2.17;;;12.20;85.00;;;;;;5054019;28;20591;-85
2022/07/11 00:31:14;;;;;;;9.57;2.10;;;12.30;86.00;;;;;;5053885;28;20199;-86
2022/07/11 00:33:39;;;;;;;4.70;2.13;;;12.30;86.50;;;;;;5054024;28;20184;-85
2022/07/11 00:36:05;;;;;;;4.23;1.97;;;12.30;86.60;;;;;;5055650;28;20546;-88
2022/07/11 00:38:31;;;;;;;4.20;1.80;;;12.30;86.60;;;;;;5053419;28;20215;-88
2022/07/11 00:40:56;;;;;;;3.03;1.60;;;12.20;86.40;;;;;;5053314;28;20176;-88
2022/07/11 00:43:37;;;;;;;11.00;2.10;;;12.20;86.00;;;;;;5055056;28;20677;-88
2022/07/11 00:46:04;;;;;;;2.77;1.40;;;12.20;85.60;;;;;;5054761;28;20190;-89
2022/07/11 00:48:30;;;;;;;6.93;1.77;;;12.20;85.30;;;;;;5054624;28;20262;-88
2022/07/11 00:50:57;;;;;;;5.67;1.60;;;12.10;84.90;;;;;;5053336;28;20210;-89
2022/07/11 00:53:23;;;;;;;3.80;1.47;;;12.10;84.70;;;;;;5053630;28;20184;-88
2022/07/11 00:55:52;;;;;;;6.30;1.60;;;12.10;84.50;;;;;;5053340;28;20184;-88
2022/07/11 00:58:19;;;;;;;7.90;1.67;;;12.10;84.40;;;;;;5053128;28;20215;-88
2022/07/11 01:00:45;;;;;;;3.50;1.40;;;12.00;84.40;;;;;;5054279;28;20172;-88
2022/07/11 01:03:11;;;;;;;3.43;1.40;;;12.00;84.30;;;;;;5052865;28;20183;-89
2022/07/11 01:05:36;;;;;;;3.33;1.43;;;12.00;84.30;;;;;;5052439;28;20179;-89
2022/07/11 01:08:02;;;;;;;3.70;1.30;;;12.00;84.10;;;;;;5052878;28;20172;-89
2022/07/11 01:10:28;;;;;;;6.30;1.67;;;12.00;83.90;;;;;;5054087;28;20210;-88
2022/07/11 01:12:54;;;;;;;6.77;1.70;;;11.90;83.80;;;;;;5052784;28;20696;-88
2022/07/11 01:15:20;;;;;;;6.23;1.70;;;11.90;83.80;;;;;;5052764;28;20191;-89
2022/07/11 01:17:46;;;;;;;2.63;1.60;;;11.90;83.70;;;;;;5052798;28;20180;-88
2022/07/11 01:20:11;;;;;;;3.13;1.43;;;11.90;83.60;;;;;;5052879;28;20266;-88
2022/07/11 01:22:43;;;;;;;3.67;1.60;;;11.80;83.40;;;;;;5052795;28;20200;-89
2022/07/11 01:25:09;;;;;;;2.70;1.33;;;11.80;83.80;;;;;;5054201;28;20183;-88
2022/07/11 01:27:36;;;;;;;4.10;1.70;;;11.80;84.80;;;;;;5052679;28;20668;-89
2022/07/11 01:30:02;;;;;;;2.83;1.30;;;11.80;85.50;;;;;;5052712;28;20180;-88
2022/07/11 01:32:27;;;;;;;3.97;1.60;;;11.80;85.60;;;;;;5053864;28;20200;-88
2022/07/11 01:34:53;;;;;;;2.80;1.73;;;11.80;85.50;;;;;;5054004;28;20176;-88
2022/07/11 01:37:18;;;;;;;3.37;1.87;;;11.80;85.70;;;;;;5052549;28;20237;-89
2022/07/11 01:39:44;;;;;;;4.00;1.43;;;11.80;86.30;;;;;;5054316;28;20211;-89
2022/07/11 01:42:09;;;;;;;6.67;1.93;;;11.80;86.20;;;;;;5052478;28;20196;-89
2022/07/11 01:44:35;;;;;;;7.20;1.90;;;11.70;86.00;;;;;;5052447;28;20172;-89
2022/07/11 01:47:01;;;;;;;6.80;2.00;;;11.70;86.10;;;;;;5052406;28;20267;-88
2022/07/11 01:49:29;;;;;;;9.27;2.90;;;11.70;86.50;;;;;;5053734;28;20175;-88
2022/07/11 01:51:55;;;;;;;3.97;1.73;;;11.70;87.20;;;;;;5053520;28;20188;-88
2022/07/11 01:54:21;;;;;;;2.33;1.57;;;11.70;87.40;;;;;;5053481;28;20194;-88
2022/07/11 01:56:47;;;;;;;5.10;2.37;;;11.70;87.50;;;;;;5052449;28;20171;-89
2022/07/11 01:59:12;;;;;;;4.03;1.80;;;11.70;87.70;;;;;;5052139;28;20686;-89
2022/07/11 02:01:38;;;;;;;7.70;2.17;;;11.70;87.50;;;;;;5053509;28;20219;-89
2022/07/11 02:04:03;;;;;;;3.73;2.13;;;11.60;87.20;;;;;;5053562;28;20266;-88
2022/07/11 02:06:29;;;;;;;6.17;2.60;;;11.70;87.80;;;;;;5052548;28;20180;-89
2022/07/11 02:08:54;;;;;;;3.70;2.43;;;11.70;88.00;;;;;;5052317;28;20191;-89
2022/07/11 02:11:20;;;;;;;2.60;1.97;;;11.60;88.20;;;;;;5053358;28;20665;-88
2022/07/11 02:13:46;;;;;;;4.70;2.13;;;11.50;88.40;;;;;;5052207;28;20172;-88
2022/07/11 02:16:12;;;;;;;2.40;2.00;;;11.40;88.70;;;;;;5055487;28;20172;-89
2022/07/11 02:18:37;;;;;;;5.83;2.30;;;11.40;89.30;;;;;;5056253;28;20215;-89
2022/07/11 02:21:03;;;;;;;4.33;2.60;;;11.30;89.30;;;;;;5056485;28;20195;-88
2022/07/11 02:23:29;;;;;;;4.77;1.90;;;11.20;89.50;;;;;;5056186;28;20204;-89
2022/07/11 02:25:54;;;;;;;7.47;2.40;;;11.30;89.60;;;;;;5056057;28;20192;-89
2022/07/11 02:28:20;;;;;;;4.37;2.50;;;11.30;89.50;;;;;;5056551;28;20629;-88
2022/07/11 02:30:46;;;;;;;3.83;2.07;;;11.30;89.40;;;;;;5057290;28;20652;-89
2022/07/11 02:33:15;;;;;;;2.70;2.07;;;11.40;89.20;;;;;;5057323;28;20183;-88
2022/07/11 02:35:47;;;;;;;4.53;1.87;;;11.40;88.90;;;;;;5056240;28;20176;-88
2022/07/11 02:38:15;;;;;;;3.80;1.80;;;11.40;88.60;;;;;;5056103;28;20199;-88
2022/07/11 02:40:40;;;;;;;4.67;1.80;;;11.30;88.40;;;;;;5057198;28;20172;-88
2022/07/11 02:43:06;;;;;;;6.27;1.70;;;11.30;88.20;;;;;;5057081;28;20214;-89
2022/07/11 02:45:32;;;;;;;6.00;1.97;;;11.30;88.10;;;;;;5057331;28;20175;-88
2022/07/11 02:47:57;;;;;;;4.30;1.57;;;11.30;87.90;;;;;;5056600;28;20172;-89
2022/07/11 02:50:23;;;;;;;2.00;1.50;;;11.30;87.70;;;;;;5056259;28;20168;-88
2022/07/11 02:52:48;;;;;;;3.27;1.60;;;11.40;88.00;;;;;;5057245;28;20188;-89
2022/07/11 02:55:15;;;;;;;7.37;2.27;;;11.30;88.20;;;;;;5055872;28;20656;-89
2022/07/11 02:57:41;;;;;;;7.93;2.37;;;11.40;88.50;;;;;;5055670;28;20172;-88
2022/07/11 03:00:11;;;;;;;4.03;1.97;;;11.40;88.80;;;;;;5057042;28;20192;-89
2022/07/11 03:02:37;;;;;;;3.73;1.87;;;11.40;88.90;;;;;;5056342;28;20200;-89
2022/07/11 03:05:03;;;;;;;3.27;1.40;;;11.40;88.80;;;;;;5057359;28;20164;-89
2022/07/11 03:07:29;;;;;;;2.37;1.50;;;11.40;88.60;;;;;;5055927;28;20172;-88
2022/07/11 03:09:55;;;;;;;2.47;1.67;;;11.30;88.30;;;;;;5056917;28;20661;-88
2022/07/11 03:12:21;;;;;;;2.90;1.53;;;11.30;88.00;;;;;;5056877;28;20235;-88
2022/07/11 03:14:46;;;;;;;6.17;1.73;;;11.30;87.70;;;;;;5055399;28;20183;-88
2022/07/11 03:17:12;;;;;;;3.13;1.30;;;11.30;87.40;;;;;;5055970;28;20180;-88
2022/07/11 03:19:37;;;;;;;6.17;1.70;;;11.30;87.20;;;;;;5055566;28;20696;-88
2022/07/11 03:22:04;;;;;;;5.60;1.30;;;11.40;87.20;;;;;;5055354;28;20192;-88
2022/07/11 03:24:30;;;;;;;6.40;1.80;;;11.30;87.00;;;;;;5055318;28;20195;-89
2022/07/11 03:26:55;;;;;;;3.67;2.20;;;11.20;87.20;;;;;;5054155;28;20164;-89
2022/07/11 03:29:21;;;;;;;1.90;1.80;;;11.20;87.50;;;;;;5055237;28;20195;-89
2022/07/11 03:31:47;;;;;;;1.93;1.50;;;11.30;87.80;;;;;;5055386;28;20218;-89
2022/07/11 03:34:12;;;;;;;2.87;1.50;;;11.30;87.70;;;;;;5056433;28;20179;-89
2022/07/11 03:36:38;;;;;;;2.83;1.40;;;11.40;87.30;;;;;;5055288;28;20681;-89
2022/07/11 03:39:04;;;;;;;1.93;1.47;;;11.50;87.00;;;;;;5055129;28;20224;-89
2022/07/11 03:41:29;;;;;;;7.10;2.33;;;11.60;86.70;;;;;;5054987;28;20286;-89
2022/07/11 03:43:56;;;;;;;7.30;2.30;;;11.70;86.40;;;;;;5055121;28;20267;-88
2022/07/11 03:46:22;;;;;;;2.07;1.77;;;11.60;86.50;;;;;;5055001;28;20168;-88
2022/07/11 03:48:47;;;;;;;6.53;2.40;;;11.50;86.70;;;;;;5056357;28;20179;-89
2022/07/11 03:51:13;;;;;;;5.90;2.50;;;11.40;86.90;;;;;;5056199;28;20192;-89
2022/07/11 03:53:38;;;;;;;7.80;2.77;;;11.50;87.10;;;;;;5055046;28;20582;-89
2022/07/11 03:56:04;;;;;;;11.10;2.47;;;11.60;87.10;;;;;;5055016;28;20601;-89
2022/07/11 03:58:30;;;;;;;7.80;2.50;;;11.70;87.00;;;;;;5056366;28;20932;-89
2022/07/11 04:00:55;;;;;;;8.37;2.33;;;11.60;87.00;;;;;;5054830;28;20172;-89
2022/07/11 04:03:21;;;;;;;5.50;2.17;;;11.50;87.20;;;;;;5054923;28;20230;-89
2022/07/11 04:05:47;;;;;;;6.60;2.33;;;11.40;87.50;;;;;;5056266;28;20164;-89
2022/07/11 04:08:12;;;;;;;3.73;2.93;;;11.70;87.70;;;;;;5055093;28;20721;-89
2022/07/11 04:10:38;;;;;;;5.37;2.20;;;12.10;87.70;;;;;;5054629;28;20176;-89
2022/07/11 04:13:03;;;;;;;4.40;1.87;;;12.50;86.80;;;;;;5055493;28;20245;-89
2022/07/11 04:15:29;;;;;;;2.23;2.03;;;12.80;85.70;;;;;;5054658;28;20183;-89
2022/07/11 04:17:54;;;;;;;3.43;1.80;;;13.10;84.90;;;;;;5054607;28;20187;-89
2022/07/11 04:20:20;;;;;;;3.73;1.50;;;13.30;83.70;;;;;;5054701;28;20580;-88
2022/07/11 04:22:46;;;;;;;4.90;1.50;;;13.40;83.00;;;;;;5054314;28;20684;-89
2022/07/11 04:25:11;;;;;;;9.63;2.33;;;13.50;82.50;;;;;;5054356;28;20188;-89
2022/07/11 04:27:37;;;;;;;4.93;1.70;;;13.50;82.40;;;;;;5054701;28;20180;-89
2022/07/11 04:30:02;;;;;;;7.30;1.47;;;13.50;82.50;;;;;;5054519;28;20195;-89
2022/07/11 04:32:28;;;;;;;5.87;1.70;;;13.50;82.40;;;;;;5054389;28;20199;-89
2022/07/11 04:34:54;;;;;;;7.77;2.10;;;13.50;82.30;;;;;;5055825;28;20622;-89
2022/07/11 04:37:19;;;;;;;3.73;1.40;;;13.40;82.20;;;;;;5054254;28;20176;-89
2022/07/11 04:39:46;;;;;;;5.70;2.00;;;13.30;82.20;;;;;;5053777;28;20253;-89
2022/07/11 04:42:12;;;;;;;5.10;2.20;;;13.30;82.40;;;;;;5054077;28;20246;-89
2022/07/11 04:44:37;;;;;;;2.53;1.53;;;13.40;82.60;;;;;;5054183;28;20184;-89
2022/07/11 04:47:03;;;;;;;1.93;1.70;;;13.50;82.60;;;;;;5055249;28;20214;-89
2022/07/11 04:49:29;;;;;;;3.10;2.40;;;13.40;83.40;;;;;;5053928;28;20175;-89
2022/07/11 04:51:55;;;;;;;4.70;2.50;;;13.30;85.60;;;;;;5055169;28;20203;-89
2022/07/11 04:54:22;;;;;;;7.37;2.67;;;13.30;87.20;;;;;;5053670;28;20203;-88
2022/07/11 04:56:48;;;;;;;7.83;2.57;;;13.30;87.80;;;;;;5055065;28;20665;-89
2022/07/11 04:59:14;;;;;;;7.93;2.53;;;13.30;87.60;;;;;;5054714;28;20291;-89
2022/07/11 05:01:40;;;;;;;3.93;1.83;;;13.30;87.80;;;;;;5053639;28;20220;-90
2022/07/11 05:04:06;;;;;;;8.37;1.90;;;13.30;87.50;;;;;;5053489;28;20237;-89
2022/07/11 05:06:33;;;;;;;10.63;2.20;;;13.40;87.30;;;;;;5053606;28;20239;-89
2022/07/11 05:08:58;;;;;;;5.20;2.30;;;13.30;87.60;;;;;;5054473;28;20638;-89
2022/07/11 05:11:24;;;;;;;6.90;2.50;;;13.50;88.40;;;;;;5053319;28;20574;-89
2022/07/11 05:13:49;;;;;;;8.47;2.20;;;13.40;88.80;;;;;;5053520;28;20179;-88
2022/07/11 05:16:15;;;;;;;11.87;2.30;;;13.30;88.70;;;;;;5053280;28;20184;-88
2022/07/11 05:18:41;;;;;;;11.27;2.70;;;13.30;88.40;;;;;;5053198;28;20215;-88
2022/07/11 05:21:06;;;;;;;11.90;2.30;;;13.40;88.00;;;;;;5053251;28;20200;-88
2022/07/11 05:23:32;;;;;;;6.07;2.07;;;13.40;87.40;;;;;;5053298;28;20180;-88
2022/07/11 05:25:57;;;;;;;8.40;2.10;;;13.50;86.60;;;;;;5053302;28;20296;-88
2022/07/11 05:28:23;;;;;;;12.80;2.90;;;13.60;86.40;;;;;;5053031;28;20179;-88
2022/07/11 05:30:48;;;;;;;13.40;2.40;;;13.60;86.30;;;;;;5053180;28;20270;-88
2022/07/11 05:33:14;;;;;;;6.27;2.30;;;13.70;86.10;;;;;;5053015;28;20266;-88
2022/07/11 05:35:39;;;;;;;11.93;2.77;;;13.80;85.80;;;;;;5054394;28;20271;-89
2022/07/11 05:38:05;;;;;;;9.63;3.17;;;13.90;85.80;;;;;;5052851;28;20179;-89
2022/07/11 05:40:31;;;;;;;9.63;2.20;;;14.10;85.80;;;;;;5053250;28;20179;-88
2022/07/11 05:42:56;;;;;;;4.67;1.77;;;14.30;85.70;;;;;;5054316;28;20195;-88
2022/07/11 05:45:22;;;;;;;10.43;2.20;;;14.50;84.60;;;;;;5053316;28;20600;-88
2022/07/11 05:47:47;;;;;;;11.60;2.37;;;14.60;83.80;;;;;;5054287;28;20199;-89
2022/07/11 05:50:13;;;;;;;9.97;2.10;;;14.80;83.00;;;;;;5053317;28;20229;-88
2022/07/11 05:52:38;;;;;;;12.03;2.00;;;14.70;82.50;;;;;;5054275;28;20196;-89
2022/07/11 05:55:04;;;;;;;11.23;2.37;;;14.70;82.20;;;;;;5053865;28;20210;-88
2022/07/11 05:57:30;;;;;;;12.50;2.50;;;14.70;82.10;;;;;;5052804;28;20262;-88
2022/07/11 05:59:56;;;;;;;11.57;2.67;;;14.90;82.60;;;;;;5053916;28;20276;-88
2022/07/11 06:02:21;;;;;;;10.20;2.50;;;14.90;82.20;;;;;;5052642;28;20758;-89
2022/07/11 06:04:47;;;;;;;11.03;2.63;;;15.10;82.70;;;;;;5052478;28;20592;-88
2022/07/11 06:08:40;;;;;;;11.25;2.22;;;15.30;82.90;;;;;;5053764;28;20537;-89
2022/07/11 06:09:58;;;;;;;7.50;1.98;;;15.30;82.10;;;;;;5054578;28;20229;-89
2022/07/11 06:12:23;;;;;;;6.78;2.30;;;15.20;80.80;;;;;;5052503;28;20613;-89
2022/07/11 06:14:49;;;;;;;9.30;2.42;;;15.20;80.50;;;;;;5053161;28;20180;-90
2022/07/11 06:17:14;;;;;;;10.27;2.03;;;15.20;80.80;;;;;;5052817;28;20175;-90
2022/07/11 06:19:40;;;;;;;7.28;1.77;;;15.20;80.40;;;;;;5052094;28;20203;-90
2022/07/11 06:22:06;;;;;;;8.20;2.42;;;15.10;80.60;;;;;;5057225;28;20208;-90
2022/07/11 06:24:31;;;;;;;8.27;2.17;;;15.20;81.30;;;;;;5052415;28;20195;-90
2022/07/11 06:27:00;;;;;;;14.23;2.53;;;15.30;80.90;;;;;;5052125;28;20197;-90
2022/07/11 06:29:26;;;;;;;6.63;1.70;;;15.40;81.00;;;;;;5052534;28;20262;-90
2022/07/11 06:31:52;;;;;;;5.30;1.92;;;15.60;81.00;;;;;;5053244;28;20265;-89
2022/07/11 06:34:18;;;;;;;7.13;1.70;;;15.60;79.90;;;;;;5052386;28;20175;-89
2022/07/11 06:36:44;;;;;;;8.95;1.90;;;15.70;80.20;;;;;;5052456;28;20259;-88
2022/07/11 06:39:09;;;;;;;7.75;2.10;;;15.70;79.20;;;;;;5052899;28;20278;-88
2022/07/11 06:41:35;;;;;;;7.57;1.77;;;15.50;79.30;;;;;;5053496;28;20289;-90
2022/07/11 06:44:00;;;;;;;7.20;1.70;;;15.70;79.80;;;;;;5051866;28;20230;-90
2022/07/11 06:46:27;;;;;;;4.38;1.27;;;16.00;80.30;;;;;;5051796;28;20263;-90
2022/07/11 06:48:52;;;;;;;8.63;1.42;;;15.70;78.30;;;;;;5053119;28;20203;-91
2022/07/11 06:51:18;;;;;;;8.25;1.92;;;15.70;79.30;;;;;;5051617;28;20227;-90
2022/07/11 06:53:44;;;;;;;9.23;1.63;;;16.10;79.60;;;;;;5052328;28;20180;-89
2022/07/11 06:56:09;;;;;;;6.55;1.58;;;16.20;78.90;;;;;;5052367;28;20638;-90
2022/07/11 06:58:35;;;;;;;11.38;1.50;;;16.30;78.70;;;;;;5051771;28;20291;-88
2022/07/11 07:01:03;;;;;;;5.05;1.38;;;16.10;77.90;;;;;;5052660;28;20536;-90
2022/07/11 07:03:30;;;;;;;4.57;1.23;;;16.10;78.10;;;;;;5057538;28;20172;-90
2022/07/11 07:05:56;;;;;;;2.75;1.13;;;16.60;79.00;;;;;;5058801;28;20200;-89
2022/07/11 07:08:27;;;;;;;6.97;1.45;;;16.50;76.60;;;;;;5055490;28;20187;-90
2022/07/11 07:10:53;;;;;;;3.88;1.13;;;16.60;77.10;;;;;;5055331;28;20187;-91
2022/07/11 07:13:20;;;;;;;5.63;1.45;;;16.80;76.70;;;;;;5055475;28;20176;-92
2022/07/11 07:15:47;;;;;;;4.72;1.30;;;16.90;76.10;;;;;;5056235;28;20180;-88
2022/07/11 07:18:13;;;;;;;3.60;1.33;;;16.50;77.30;;;;;;5056346;28;20553;-88
2022/07/11 07:20:38;;;;;;;7.43;2.20;;;16.70;77.80;;;;;;5056760;28;20168;-89
2022/07/11 07:23:04;;;;;;;7.82;1.65;;;17.00;76.90;;;;;;5056752;28;20701;-89
2022/07/11 07:25:30;;;;;;;5.38;1.30;;;17.20;76.00;;;;;;5055259;28;20195;-89
2022/07/11 07:27:55;;;;;;;4.25;1.17;;;17.20;75.60;;;;;;5055433;28;20595;-88
2022/07/11 07:30:21;;;;;;;7.15;1.70;;;17.10;76.90;;;;;;5057245;28;20183;-91
2022/07/11 07:32:46;;;;;;;5.47;1.50;;;17.30;76.10;;;;;;5055808;28;20199;-88
2022/07/11 07:35:12;;;;;;;5.78;1.50;;;17.40;75.50;;;;;;5055723;28;20182;-89
2022/07/11 07:37:38;;;;;;;7.03;1.50;;;17.40;75.60;;;;;;5055703;28;20290;-89
2022/07/11 07:40:04;;;;;;;4.20;1.30;;;17.70;75.30;;;;;;5150299;22;20231;-89
2022/07/11 07:42:29;;;;;;;7.97;1.40;;;17.50;75.10;;;;;;5051600;28;20201;-89
2022/07/11 07:44:55;;;;;;;7.95;1.70;;;17.50;75.30;;;;;;5052864;28;20273;-89
2022/07/11 07:47:20;;;;;;;5.95;1.60;;;17.20;74.70;;;;;;5055006;28;20187;-88
2022/07/11 07:49:46;;;;;;;5.40;1.42;;;17.30;75.20;;;;;;5051205;28;20176;-90
2022/07/11 07:52:12;;;;;;;4.15;1.45;;;17.40;75.10;;;;;;5034601;28;20196;-89
2022/07/11 07:54:37;;;;;;;6.38;1.52;;;17.40;74.90;;;;;;5051060;28;20181;-89
2022/07/11 07:57:03;;;;;;;7.75;1.92;;;17.10;74.30;;;;;;5035796;28;20181;-88
2022/07/11 07:59:29;;;;;;;5.35;1.48;;;16.80;76.80;;;;;;5050884;28;20197;-88
2022/07/11 08:01:54;;;;;;;2.92;1.35;;;17.20;76.90;;;;;;5035786;28;20199;-88
2022/07/11 08:04:20;;;;;;;7.85;1.30;;;17.30;76.60;;;;;;5034355;28;20603;-88
2022/07/11 08:06:46;;;;;;;2.53;1.17;;;17.50;74.70;;;;;;5034315;28;20176;-88
2022/07/11 08:09:12;;;;;;;3.17;1.60;;;17.60;74.60;;;;;;5034170;28;20191;-88
2022/07/11 08:11:38;;;;;;;6.93;1.55;;;17.90;73.60;;;;;;5050725;28;20581;-88
2022/07/11 08:14:04;;;;;;;4.60;1.40;;;17.80;72.30;;;;;;5050953;28;20322;-90
2022/07/11 08:16:31;;;;;;;10.23;1.50;;;18.10;74.50;;;;;;5050649;28;20660;-88
2022/07/11 08:18:59;;;;;;;3.63;1.50;;;18.20;71.50;;;;;;5050502;28;20674;-89
2022/07/11 08:21:25;;;;;;;5.85;1.48;;;18.30;72.30;;;;;;5034068;28;20247;-88
2022/07/11 08:23:50;;;;;;;5.85;1.60;;;18.10;71.90;;;;;;5033974;28;20173;-89
2022/07/11 08:26:16;;;;;;;6.75;1.63;;;18.20;72.50;;;;;;5035031;28;20252;-89
2022/07/11 08:28:42;;;;;;;3.67;1.40;;;18.50;73.00;;;;;;5050373;28;20172;-88
2022/07/11 08:31:08;;;;;;;6.15;1.58;;;18.80;70.80;;;;;;5034800;28;20204;-88
2022/07/11 08:33:34;;;;;;;4.18;1.52;;;19.10;72.80;;;;;;5035036;28;20169;-88
2022/07/11 08:35:59;;;;;;;4.28;1.52;;;19.50;70.90;;;;;;5034886;28;20173;-88
2022/07/11 08:38:25;;;;;;;3.10;1.40;;;19.70;70.40;;;;;;5034930;28;20200;-88
2022/07/11 08:40:51;;;;;;;8.32;2.05;;;19.10;68.90;;;;;;5034548;28;20180;-88
2022/07/11 08:43:18;;;;;;;5.63;1.45;;;18.80;73.50;;;;;;5050222;28;20195;-88
2022/07/11 08:45:44;;;;;;;6.22;1.90;;;18.70;73.60;;;;;;5050170;28;20655;-89
2022/07/11 08:48:10;;;;;;;5.70;1.40;;;18.70;72.70;;;;;;5033450;28;20263;-88
2022/07/11 08:50:36;;;;;;;6.65;1.40;;;18.90;72.40;;;;;;5049998;28;20276;-89
2022/07/11 08:53:04;;;;;;;4.95;1.83;;;18.80;71.40;;;;;;5050096;28;20196;-88
2022/07/11 08:55:29;;;;;;;3.25;1.75;;;18.20;74.00;;;;;;5034476;28;20666;-87
2022/07/11 08:57:56;;;;;;;7.07;1.95;;;17.90;74.70;;;;;;5049729;28;20177;-88
2022/07/11 09:00:22;;;;;;;3.45;1.67;;;17.80;76.80;;;;;;5049735;28;20196;-88
2022/07/11 09:02:49;;;;;;;3.85;1.90;;;17.90;75.10;;;;;;5049578;28;20204;-89
2022/07/11 09:05:15;;;;;;;5.93;2.17;;;18.20;74.90;;;;;;5049999;28;20272;-88
2022/07/11 09:07:48;;;;;;;4.10;1.80;;;18.00;74.50;;;;;;5033150;28;20619;-85
2022/07/11 09:10:16;;;;;;;5.55;1.67;;;18.10;74.50;;;;;;5035327;28;20227;-88
2022/07/11 09:13:10;;;;;;;4.03;1.77;;;18.30;74.00;;;;;;5050907;28;20683;-86
2022/07/11 09:15:45;;;;;;;2.80;1.65;;;18.10;74.60;;;;;;5035405;28;20189;-86
2022/07/11 09:18:40;;;;;;;2.60;1.63;;;18.00;74.60;;;;;;5051077;28;20195;-86
2022/07/11 09:26:43;;;;;;;4.30;2.05;;;19.20;73.50;;;;;;5033685;28;20214;-86
2022/07/11 09:29:14;;;;;;;4.53;2.05;;;18.90;72.50;;;;;;5034019;28;20546;-86
2022/07/11 09:31:42;;;;;;;6.88;2.00;;;18.80;72.50;;;;;;5048979;28;20207;-86
2022/07/11 09:34:09;;;;;;;4.85;2.10;;;18.80;74.50;;;;;;5048995;28;20271;-85
2022/07/11 09:36:43;;;;;;;4.07;2.13;;;19.00;71.80;;;;;;5049570;28;20177;-85
2022/07/11 09:39:19;;;;;;;5.97;2.42;;;18.80;72.10;;;;;;5049466;28;20570;-85
2022/07/11 09:41:47;;;;;;;7.45;2.00;;;18.90;74.80;;;;;;5049111;28;20211;-86
2022/07/11 09:44:16;;;;;;;4.45;1.70;;;19.20;73.60;;;;;;5032674;28;20264;-86
2022/07/11 09:46:45;;;;;;;7.57;2.17;;;19.10;72.10;;;;;;5049200;28;20252;-86
2022/07/11 09:49:11;;;;;;;4.05;2.10;;;18.80;74.70;;;;;;5032520;28;20184;-86
2022/07/11 09:51:37;;;;;;;3.70;1.70;;;18.70;73.10;;;;;;5033446;28;20196;-86
2022/07/11 09:54:04;;;;;;;6.25;2.00;;;18.90;73.50;;;;;;5033450;28;20200;-86
2022/07/11 09:56:45;;;;;;;5.88;2.10;;;19.20;73.80;;;;;;5034294;28;20264;-87
2022/07/11 09:59:12;;;;;;;2.47;1.77;;;19.40;74.70;;;;;;5033634;28;20538;-87
2022/07/11 10:01:39;;;;;;;4.47;1.75;;;19.50;73.00;;;;;;5048857;28;20682;-87
2022/07/11 10:04:06;;;;;;;4.25;1.92;;;19.70;73.00;;;;;;5032204;28;20550;-87
2022/07/11 10:06:32;;;;;;;2.42;1.63;;;19.80;71.20;;;;;;5048663;28;20169;-87
2022/07/11 10:08:58;;;;;;;4.57;1.58;;;19.80;70.60;;;;;;5033511;28;20264;-86
2022/07/11 10:11:23;;;;;;;2.95;1.63;;;20.00;70.30;;;;;;5048895;28;20207;-87
2022/07/11 10:13:50;;;;;;;3.75;1.48;;;20.40;68.90;;;;;;5032193;28;20184;-88
2022/07/11 10:16:40;;;;;;;5.22;1.80;;;20.60;68.10;;;;;;5033593;28;20694;-86
2022/07/11 10:19:21;;;;;;;5.90;1.80;;;19.90;70.90;;;;;;5032261;28;20299;-88
2022/07/11 10:22:19;;;;;;;2.90;1.70;;;20.00;72.30;;;;;;5032125;28;20230;-87
2022/07/11 10:24:58;;;;;;;2.45;1.30;;;20.40;70.20;;;;;;5048715;28;20669;-86
2022/07/11 10:27:26;;;;;;;1.98;1.75;;;20.50;69.10;;;;;;5032004;28;20173;-87
2022/07/11 10:29:53;;;;;;;4.53;1.52;;;21.00;67.10;;;;;;5048753;28;20200;-85
2022/07/11 10:32:19;;;;;;;2.78;1.65;;;21.40;66.50;;;;;;5033553;28;20189;-88
2022/07/11 10:34:47;;;;;;;1.88;1.50;;;21.60;66.50;;;;;;5048650;28;20206;-87
2022/07/11 10:37:13;;;;;;;4.28;1.60;;;22.00;66.60;;;;;;5050932;28;20182;-87
2022/07/11 10:39:46;;;;;;;7.88;1.40;;;21.30;67.60;;;;;;5052506;28;20211;-87
2022/07/11 10:42:20;;;;;;;1.98;1.27;;;21.00;64.10;;;;;;5053358;28;20678;-86
2022/07/11 10:44:53;;;;;;;3.58;1.48;;;20.70;67.10;;;;;;5037682;28;20152;-88
2022/07/11 10:47:41;;;;;;;1.10;1.00;;;20.90;69.20;;;;;;5036201;28;20172;-87
2022/07/11 10:50:27;;;;;;;2.17;1.40;;;21.30;66.60;;;;;;5037133;28;20639;-88
2022/07/11 10:52:57;;;;;;;6.72;1.60;;;20.80;68.70;;;;;;5025365;28;20589;-87
2022/07/11 10:55:47;;;;;;;2.83;1.23;;;20.50;70.30;;;;;;5052305;28;20305;-89
2022/07/11 10:58:29;;;;;;;1.30;1.20;;;21.30;68.00;;;;;;5052064;28;20168;-89
2022/07/11 11:01:14;;;;;;;3.55;1.33;;;21.50;65.70;;;;;;5036689;28;20184;-87
2022/07/11 11:03:41;;;;;;;1.98;0.93;;;20.70;69.40;;;;;;5035497;28;20693;-88
2022/07/11 11:06:07;;;;;;;2.88;1.30;;;20.90;69.10;;;;;;5035658;28;20181;-86
2022/07/11 11:08:36;;;;;;;2.38;0.90;;;20.70;69.70;;;;;;5036981;28;20181;-86
2022/07/11 11:11:07;;;;;;;1.15;0.90;;;21.30;68.90;;;;;;5037643;28;20180;-86
2022/07/11 11:13:38;;;;;;;0.90;0.70;;;21.50;68.40;;;;;;5053023;28;20219;-87
2022/07/11 11:16:20;;;;;;;2.10;0.88;;;22.20;64.60;;;;;;5038186;28;20244;-89
2022/07/11 11:18:46;;;;;;;1.05;0.60;;;22.60;62.40;;;;;;5052976;28;20196;-89
2022/07/11 11:21:12;;;;;;;0.85;0.73;;;22.70;59.70;;;;;;5052047;28;20203;-90
2022/07/11 11:23:42;;;;;;;0.82;0.52;;;22.30;62.00;;;;;;5052089;28;20274;-89
2022/07/11 11:26:19;;;;;;;1.20;0.70;;;22.30;60.00;;;;;;5037165;28;20164;-90
2022/07/11 11:28:59;;;;;;;2.22;0.70;;;22.00;63.60;;;;;;5052993;28;20183;-88
2022/07/11 11:31:26;;;;;;;0.68;0.60;;;22.80;60.10;;;;;;5052180;28;20678;-90
2022/07/11 11:33:52;;;;;;;0.60;0.60;;;23.50;60.30;;;;;;5038013;28;20177;-88
2022/07/11 11:36:19;;;;;;;0.90;0.77;;;23.50;58.70;;;;;;5053724;28;20322;-90
2022/07/11 11:38:49;;;;;;;1.35;0.70;;;23.70;57.00;;;;;;5037613;28;20193;-89
2022/07/11 11:41:27;;;;;;;0.80;0.77;;;23.50;58.70;;;;;;5052566;28;20208;-89
2022/07/11 11:43:56;;;;;;;0.98;0.45;;;23.90;55.60;;;;;;5036333;28;20204;-90
2022/07/11 11:46:29;;;;;;;0.82;0.47;;;24.30;55.80;;;;;;5034833;28;20179;-90
2022/07/11 11:48:57;;;;;;;0.90;0.52;;;24.10;55.40;;;;;;5050396;28;20172;-89
2022/07/11 11:51:24;;;;;;;1.90;0.70;;;23.50;57.00;;;;;;5051238;28;20197;-89
2022/07/11 11:53:54;;;;;;;0.60;0.60;;;23.20;57.40;;;;;;5036176;28;20183;-89
2022/07/11 11:56:22;;;;;;;2.47;0.70;;;23.70;58.60;;;;;;5035154;28;20180;-90
2022/07/11 11:58:49;;;;;;;0.47;0.47;;;24.20;54.90;;;;;;5051355;28;20201;-90
2022/07/11 12:01:20;;;;;;;0.57;0.55;;;24.30;57.50;;;;;;5051313;28;20197;-89
2022/07/11 12:03:55;;;;;;;0.57;0.40;;;24.30;57.20;;;;;;5051785;28;20169;-89
2022/07/11 12:06:28;;;;;;;0.40;0.40;;;24.60;55.10;;;;;;5051626;28;20312;-90
2022/07/11 12:09:11;;;;;;;0.77;0.50;;;24.80;55.00;;;;;;5052194;28;20172;-88
2022/07/11 12:11:39;;;;;;;0.77;0.50;;;24.60;55.40;;;;;;5051453;28;20246;-90
2022/07/11 12:14:06;;;;;;;1.48;0.70;;;24.00;58.40;;;;;;5034975;28;20215;-90
2022/07/11 12:16:43;;;;;;;1.27;0.50;;;24.80;55.30;;;;;;5051350;28;20617;-89
2022/07/11 12:19:14;;;;;;;0.45;0.40;;;25.20;53.30;;;;;;5052268;28;20200;-89
2022/07/11 12:21:53;;;;;;;0.47;0.47;;;25.10;52.90;;;;;;5034803;28;20200;-89
2022/07/11 12:24:22;;;;;;;1.17;0.57;;;24.20;54.90;;;;;;5036062;28;20185;-89
2022/07/11 12:26:49;;;;;;;1.23;0.50;;;24.20;55.40;;;;;;5051423;28;20647;-89
2022/07/11 12:29:16;;;;;;;1.13;0.50;;;23.40;55.60;;;;;;5035938;28;20169;-89
2022/07/11 12:31:48;;;;;;;0.82;0.50;;;23.10;56.10;;;;;;5035819;28;20192;-88
2022/07/11 12:34:15;;;;;;;0.60;0.43;;;23.20;57.10;;;;;;5035455;28;20188;-91
2022/07/11 12:36:41;;;;;;;0.80;0.40;;;23.50;58.00;;;;;;5036032;28;20290;-89
2022/07/11 12:39:08;;;;;;;0.40;0.40;;;23.50;57.40;;;;;;5034406;28;20677;-88
2022/07/11 12:41:34;;;;;;;0.50;0.50;;;23.70;55.90;;;;;;5051001;28;20212;-89
2022/07/11 12:46:47;;;;;;;0.95;0.52;;;23.90;58.00;;;;;;5035645;28;20160;-88
2022/07/11 12:49:14;;;;;;;0.40;0.40;;;24.00;55.50;;;;;;5035265;28;20173;-89
2022/07/11 12:51:45;;;;;;;2.08;0.50;;;24.50;56.40;;;;;;5050500;28;20250;-89
2022/07/11 12:54:15;;;;;;;2.00;0.50;;;23.60;58.20;;;;;;5035281;28;20172;-88
2022/07/11 12:56:56;;;;;;;0.50;0.40;;;24.30;57.40;;;;;;5050579;28;20164;-89